Time;durP1;ratioP1;P1;durP2;ratioP2;P2;SDS_P1;SDS_P2;PMS_P1;PMS_P2;Temp;Humidity;BMP_temperature;BMP_pressure;BME280_temperature;BME280_humidity;BME280_pressure;Samples;Min_cycle;Max_cycle;Signal;HPM_P1;HPM_P2
2021/05/14 00:01:57;;;;;;;20.95;12.27;;;;;;;;;;5078201;28;20094;-74
2021/05/14 00:04:22;;;;;;;21.88;12.40;;;;;;;;;;5077945;28;20028;-74
2021/05/14 00:06:48;;;;;;;16.85;11.77;;;;;;;;;;5077197;28;20048;-74
2021/05/14 00:09:16;;;;;;;16.23;11.25;;;;;;;;;;5094225;28;20032;-74
2021/05/14 00:11:42;;;;;;;21.95;14.57;;;;;;;;;;5110575;28;20426;-74
2021/05/14 00:14:09;;;;;;;20.27;12.45;;;;;;;;;;5094023;28;20123;-74
2021/05/14 00:16:34;;;;;;;16.02;12.90;;;;;;;;;;5077011;28;20078;-75
2021/05/14 00:19:00;;;;;;;26.20;14.38;;;;;;;;;;5076979;28;20024;-74
2021/05/14 00:21:30;;;;;;;21.70;14.70;;;;;;;;;;5076846;28;20025;-74
2021/05/14 00:23:56;;;;;;;26.45;15.52;;;;;;;;;;5077868;28;20446;-74
2021/05/14 00:26:21;;;;;;;25.30;15.18;;;;;;;;;;5077605;28;20035;-74
2021/05/14 00:28:46;;;;;;;22.15;14.05;;;;;;;;;;5110594;28;20061;-74
2021/05/14 00:31:12;;;;;;;21.20;13.35;;;;;;;;;;5077601;28;20373;-74
2021/05/14 00:33:37;;;;;;;24.05;17.55;;;;;;;;;;5077406;28;20441;-74
2021/05/14 00:36:04;;;;;;;29.45;20.23;;;;;;;;;;5077417;28;20449;-75
2021/05/14 00:38:29;;;;;;;33.10;20.73;;;;;;;;;;5110219;28;20354;-74
2021/05/14 00:40:54;;;;;;;25.30;19.83;;;;;;;;;;5076335;28;20020;-74
2021/05/14 00:43:20;;;;;;;34.58;22.13;;;;;;;;;;5077532;28;20441;-74
2021/05/14 00:45:45;;;;;;;24.65;17.45;;;;;;;;;;5077494;28;20021;-74
2021/05/14 00:48:10;;;;;;;33.33;21.58;;;;;;;;;;5076484;28;20031;-75
2021/05/14 00:50:35;;;;;;;35.45;22.60;;;;;;;;;;5076296;28;20020;-75
2021/05/14 00:53:01;;;;;;;37.72;25.23;;;;;;;;;;5076173;28;20454;-75
2021/05/14 00:55:26;;;;;;;31.95;21.73;;;;;;;;;;5075842;28;20024;-74
2021/05/14 00:57:51;;;;;;;25.38;18.63;;;;;;;;;;5093000;28;20027;-74
2021/05/14 01:00:17;;;;;;;34.03;21.90;;;;;;;;;;5076631;28;20108;-74
2021/05/14 01:02:42;;;;;;;20.00;16.83;;;;;;;;;;5110047;28;20039;-74
2021/05/14 01:05:08;;;;;;;37.50;26.08;;;;;;;;;;5076965;28;20503;-75
2021/05/14 01:07:34;;;;;;;34.83;23.15;;;;;;;;;;5076779;28;20017;-75
2021/05/14 01:10:00;;;;;;;32.50;23.25;;;;;;;;;;5075772;28;20081;-74
2021/05/14 01:12:25;;;;;;;29.08;20.95;;;;;;;;;;5076775;28;20115;-75
2021/05/14 01:14:50;;;;;;;27.83;20.05;;;;;;;;;;5092686;28;20035;-75
2021/05/14 01:17:15;;;;;;;34.53;22.02;;;;;;;;;;5077050;28;20452;-75
2021/05/14 01:19:41;;;;;;;33.25;23.92;;;;;;;;;;5076799;28;20079;-74
2021/05/14 01:22:06;;;;;;;28.70;21.77;;;;;;;;;;5076889;28;20211;-74
2021/05/14 01:24:32;;;;;;;33.72;22.88;;;;;;;;;;5076742;28;20017;-75
2021/05/14 01:26:57;;;;;;;27.98;21.67;;;;;;;;;;5076425;28;20048;-75
2021/05/14 01:29:24;;;;;;;25.00;21.00;;;;;;;;;;5076518;28;20013;-75
2021/05/14 01:31:50;;;;;;;27.77;20.88;;;;;;;;;;5076828;28;20115;-74
2021/05/14 01:34:15;;;;;;;29.65;21.30;;;;;;;;;;5077268;28;20021;-74
2021/05/14 01:36:41;;;;;;;28.50;22.38;;;;;;;;;;5076528;28;20025;-74
2021/05/14 01:39:08;;;;;;;31.63;23.27;;;;;;;;;;5092165;28;20058;-74
2021/05/14 01:41:33;;;;;;;36.28;25.88;;;;;;;;;;5075022;28;20021;-74
2021/05/14 01:43:58;;;;;;;35.65;26.13;;;;;;;;;;5109581;28;20035;-74
2021/05/14 01:46:24;;;;;;;32.25;25.02;;;;;;;;;;5076907;28;20036;-74
2021/05/14 01:48:49;;;;;;;37.25;26.35;;;;;;;;;;5077353;28;20028;-74
2021/05/14 01:51:16;;;;;;;27.30;22.17;;;;;;;;;;5114852;28;20053;-74
2021/05/14 01:53:41;;;;;;;33.45;26.20;;;;;;;;;;5082565;28;20024;-74
2021/05/14 01:56:07;;;;;;;26.13;23.00;;;;;;;;;;5098489;28;20113;-74
2021/05/14 01:58:32;;;;;;;30.00;24.65;;;;;;;;;;5079142;28;20017;-74
2021/05/14 02:00:57;;;;;;;29.33;23.13;;;;;;;;;;5075970;28;20056;-75
2021/05/14 02:03:22;;;;;;;22.88;20.42;;;;;;;;;;5075169;28;20025;-75
2021/05/14 02:05:48;;;;;;;22.70;20.45;;;;;;;;;;5074953;28;20013;-75
2021/05/14 02:08:13;;;;;;;26.27;23.00;;;;;;;;;;5076178;28;20021;-74
2021/05/14 02:10:38;;;;;;;27.20;22.17;;;;;;;;;;5109804;28;20036;-74
2021/05/14 02:13:03;;;;;;;28.40;24.25;;;;;;;;;;5075603;28;20024;-74
2021/05/14 02:15:29;;;;;;;30.23;25.23;;;;;;;;;;5108278;28;20044;-74
2021/05/14 02:17:54;;;;;;;25.65;22.90;;;;;;;;;;5074676;28;20334;-74
2021/05/14 02:20:19;;;;;;;25.98;22.85;;;;;;;;;;5108385;28;20129;-74
2021/05/14 02:22:45;;;;;;;25.95;23.20;;;;;;;;;;5075552;28;20021;-75
2021/05/14 02:25:10;;;;;;;26.58;23.88;;;;;;;;;;5108372;28;20024;-75
2021/05/14 02:27:37;;;;;;;27.38;24.48;;;;;;;;;;5074453;28;20017;-74
2021/05/14 02:30:04;;;;;;;30.35;25.73;;;;;;;;;;5074194;28;20035;-74
2021/05/14 02:32:29;;;;;;;27.65;24.42;;;;;;;;;;5075070;28;20025;-74
2021/05/14 02:34:54;;;;;;;27.33;24.35;;;;;;;;;;5074495;28;20024;-74
2021/05/14 02:37:20;;;;;;;26.60;23.67;;;;;;;;;;5074182;28;20361;-74
2021/05/14 02:39:45;;;;;;;27.17;24.48;;;;;;;;;;5107855;28;20028;-75
2021/05/14 02:42:10;;;;;;;27.40;24.48;;;;;;;;;;5074050;28;20035;-75
2021/05/14 02:44:36;;;;;;;25.55;22.95;;;;;;;;;;5074116;28;20079;-74
2021/05/14 02:47:03;;;;;;;27.35;24.55;;;;;;;;;;5107840;28;20024;-74
2021/05/14 02:49:28;;;;;;;20.25;18.35;;;;;;;;;;5074997;28;20017;-74
2021/05/14 02:51:53;;;;;;;22.42;16.58;;;;;;;;;;5107639;28;20028;-74
2021/05/14 02:54:20;;;;;;;17.48;15.80;;;;;;;;;;5074163;28;20044;-74
2021/05/14 02:56:45;;;;;;;17.48;15.68;;;;;;;;;;5075020;28;20024;-75
2021/05/14 02:59:10;;;;;;;19.15;15.00;;;;;;;;;;5073825;28;20074;-75
2021/05/14 03:01:36;;;;;;;16.92;15.02;;;;;;;;;;5107823;28;20021;-75
2021/05/14 03:04:04;;;;;;;16.65;14.98;;;;;;;;;;5074751;28;20453;-74
2021/05/14 03:06:29;;;;;;;14.63;13.23;;;;;;;;;;5074763;28;20023;-75
2021/05/14 03:08:54;;;;;;;16.88;15.15;;;;;;;;;;5073890;28;20533;-74
2021/05/14 03:11:19;;;;;;;17.05;14.90;;;;;;;;;;5075829;28;20043;-74
2021/05/14 03:13:45;;;;;;;16.30;14.63;;;;;;;;;;5108763;28;20045;-74
2021/05/14 03:16:10;;;;;;;15.30;13.80;;;;;;;;;;5074728;28;20033;-74
2021/05/14 03:18:37;;;;;;;15.25;13.75;;;;;;;;;;5073796;28;20067;-75
2021/05/14 03:21:02;;;;;;;16.15;14.55;;;;;;;;;;5075349;28;20154;-74
2021/05/14 03:23:27;;;;;;;16.05;14.48;;;;;;;;;;5114624;28;20464;-75
2021/05/14 03:25:53;;;;;;;14.98;13.65;;;;;;;;;;5076952;28;20016;-75
2021/05/14 03:28:18;;;;;;;15.35;13.75;;;;;;;;;;5074825;28;20060;-75
2021/05/14 03:30:44;;;;;;;16.77;15.00;;;;;;;;;;5074646;28;20025;-74
2021/05/14 03:33:09;;;;;;;16.27;14.38;;;;;;;;;;5107373;28;20016;-74
2021/05/14 03:35:35;;;;;;;15.77;14.25;;;;;;;;;;5107088;28;20035;-75
2021/05/14 03:38:00;;;;;;;17.05;15.38;;;;;;;;;;5074471;28;20016;-74
2021/05/14 03:40:36;;;;;;;17.05;14.18;;;;;;;;;;5074641;28;20032;-75
2021/05/14 03:43:02;;;;;;;15.00;13.57;;;;;;;;;;5074604;28;20438;-74
2021/05/14 03:45:27;;;;;;;15.50;13.90;;;;;;;;;;5074133;28;20029;-75
2021/05/14 03:47:53;;;;;;;15.90;14.15;;;;;;;;;;5073386;28;20050;-75
2021/05/14 03:50:18;;;;;;;14.23;12.82;;;;;;;;;;5074448;28;20452;-74
2021/05/14 03:52:44;;;;;;;14.85;13.38;;;;;;;;;;5090137;28;20123;-75
2021/05/14 03:55:09;;;;;;;15.93;13.30;;;;;;;;;;5073446;28;20032;-74
2021/05/14 03:57:35;;;;;;;15.43;13.88;;;;;;;;;;5074288;28;20016;-74
2021/05/14 04:00:07;;;;;;;13.80;12.55;;;;;;;;;;5073993;28;20076;-75
2021/05/14 04:02:33;;;;;;;12.88;11.60;;;;;;;;;;5074436;28;20032;-75
2021/05/14 04:04:59;;;;;;;12.80;11.50;;;;;;;;;;5073978;28;20334;-74
2021/05/14 04:07:25;;;;;;;12.45;11.15;;;;;;;;;;5074040;28;20012;-74
2021/05/14 04:15:28;;;;;;;11.43;10.43;;;;;;;;;;5074292;28;20463;-75
2021/05/14 04:17:54;;;;;;;11.57;10.23;;;;;;;;;;5073999;28;20020;-75
2021/05/14 04:20:19;;;;;;;14.75;10.73;;;;;;;;;;5073841;28;20116;-74
2021/05/14 04:22:45;;;;;;;11.32;10.30;;;;;;;;;;5073962;28;20024;-75
2021/05/14 04:25:10;;;;;;;11.85;10.63;;;;;;;;;;5074104;28;20016;-74
2021/05/14 04:27:35;;;;;;;11.43;10.23;;;;;;;;;;5106787;28;20024;-74
2021/05/14 04:30:01;;;;;;;11.52;10.40;;;;;;;;;;5075680;28;20449;-75
2021/05/14 04:32:27;;;;;;;12.35;11.07;;;;;;;;;;5110382;28;20054;-75
2021/05/14 04:34:54;;;;;;;11.73;10.70;;;;;;;;;;5093309;28;20032;-75
2021/05/14 04:37:19;;;;;;;12.23;11.00;;;;;;;;;;5076455;28;20031;-75
2021/05/14 04:39:45;;;;;;;16.08;11.55;;;;;;;;;;5093282;28;20374;-74
2021/05/14 04:42:11;;;;;;;14.57;11.25;;;;;;;;;;5077799;28;20361;-74
2021/05/14 04:44:37;;;;;;;11.90;10.70;;;;;;;;;;5077481;28;20021;-74
2021/05/14 04:47:02;;;;;;;12.25;11.05;;;;;;;;;;5077128;28;20035;-74
2021/05/14 04:49:29;;;;;;;14.85;10.57;;;;;;;;;;5110167;28;20020;-74
2021/05/14 04:51:55;;;;;;;11.90;10.70;;;;;;;;;;5077393;28;20055;-74
2021/05/14 04:54:21;;;;;;;11.50;10.35;;;;;;;;;;5077254;28;20024;-74
2021/05/14 04:56:46;;;;;;;12.65;10.20;;;;;;;;;;5110017;28;20024;-75
2021/05/14 04:59:11;;;;;;;11.55;10.20;;;;;;;;;;5077038;28;20128;-74
2021/05/14 05:01:38;;;;;;;11.40;10.15;;;;;;;;;;5109769;28;20078;-75
2021/05/14 05:04:03;;;;;;;11.50;10.40;;;;;;;;;;5077374;28;20044;-74
2021/05/14 05:06:29;;;;;;;10.60;8.98;;;;;;;;;;5110191;28;20020;-74
2021/05/14 05:08:54;;;;;;;12.57;9.05;;;;;;;;;;5077237;28;20031;-75
2021/05/14 05:11:20;;;;;;;9.50;8.57;;;;;;;;;;5076873;28;20063;-75
2021/05/14 05:13:45;;;;;;;10.77;8.60;;;;;;;;;;5059233;28;20032;-75
2021/05/14 05:16:10;;;;;;;9.27;8.38;;;;;;;;;;5076922;28;20525;-74
2021/05/14 05:18:37;;;;;;;9.32;8.40;;;;;;;;;;5075697;28;20024;-76
2021/05/14 05:21:04;;;;;;;8.57;7.70;;;;;;;;;;5078402;28;20032;-75
2021/05/14 05:23:29;;;;;;;9.02;8.05;;;;;;;;;;5078238;28;20044;-75
2021/05/14 05:25:55;;;;;;;8.98;8.07;;;;;;;;;;5076694;28;20086;-75
2021/05/14 05:28:22;;;;;;;9.18;7.80;;;;;;;;;;5076734;28;20028;-75
2021/05/14 05:30:47;;;;;;;10.52;8.23;;;;;;;;;;5076605;28;20056;-75
2021/05/14 05:33:12;;;;;;;10.07;8.00;;;;;;;;;;5076408;28;20028;-75
2021/05/14 05:35:38;;;;;;;9.63;8.35;;;;;;;;;;5076369;28;20508;-76
2021/05/14 05:38:03;;;;;;;11.57;8.32;;;;;;;;;;5076476;28;20079;-75
2021/05/14 05:40:30;;;;;;;9.57;8.25;;;;;;;;;;5075147;28;20042;-75
2021/05/14 05:42:55;;;;;;;10.13;7.72;;;;;;;;;;5058413;28;20032;-75
2021/05/14 05:45:20;;;;;;;8.43;7.72;;;;;;;;;;5075187;28;20020;-75
2021/05/14 05:47:47;;;;;;;11.25;8.02;;;;;;;;;;5076125;28;20396;-75
2021/05/14 05:50:12;;;;;;;8.40;7.60;;;;;;;;;;5109066;28;20403;-75
2021/05/14 05:52:38;;;;;;;8.07;7.35;;;;;;;;;;5076006;28;20035;-75
2021/05/14 05:55:03;;;;;;;9.95;7.22;;;;;;;;;;5075045;28;20107;-75
2021/05/14 05:57:28;;;;;;;10.10;8.15;;;;;;;;;;5075166;28;20020;-75
2021/05/14 05:59:54;;;;;;;8.65;7.10;;;;;;;;;;5075672;28;20474;-75
2021/05/14 06:02:19;;;;;;;10.98;6.95;;;;;;;;;;5076092;28;20091;-75
2021/05/14 06:04:44;;;;;;;7.90;7.10;;;;;;;;;;5075758;28;20058;-75
2021/05/14 06:07:11;;;;;;;8.00;7.00;;;;;;;;;;5076046;28;20016;-75
2021/05/14 06:09:36;;;;;;;7.15;6.45;;;;;;;;;;5075892;28;20499;-75
2021/05/14 06:12:02;;;;;;;6.53;5.93;;;;;;;;;;5058204;28;20044;-75
2021/05/14 06:14:27;;;;;;;8.70;5.93;;;;;;;;;;5075626;28;20029;-75
2021/05/14 06:16:54;;;;;;;6.47;5.50;;;;;;;;;;5075662;28;20016;-75
2021/05/14 06:19:32;;;;;;;6.10;5.50;;;;;;;;;;5075074;28;20071;-75
2021/05/14 06:21:57;;;;;;;6.78;5.30;;;;;;;;;;5075647;28;20077;-75
2021/05/14 06:24:22;;;;;;;6.07;5.45;;;;;;;;;;5075479;28;20021;-75
2021/05/14 06:26:50;;;;;;;6.05;5.10;;;;;;;;;;5074480;28;20453;-75
2021/05/14 06:29:16;;;;;;;7.93;5.00;;;;;;;;;;5074723;28;20350;-75
2021/05/14 06:31:41;;;;;;;8.70;5.20;;;;;;;;;;5074673;28;20023;-75
2021/05/14 06:34:06;;;;;;;5.68;5.00;;;;;;;;;;5074778;28;20371;-75
2021/05/14 06:36:32;;;;;;;6.80;4.47;;;;;;;;;;5074376;28;20024;-75
2021/05/14 06:38:57;;;;;;;5.20;4.60;;;;;;;;;;5075699;28;20497;-75
2021/05/14 06:41:23;;;;;;;7.15;5.10;;;;;;;;;;5057579;28;20024;-76
2021/05/14 06:43:49;;;;;;;6.47;4.55;;;;;;;;;;5074642;28;20024;-75
2021/05/14 06:46:14;;;;;;;8.27;4.68;;;;;;;;;;5075483;28;20027;-75
2021/05/14 06:48:44;;;;;;;9.88;4.80;;;;;;;;;;5074402;28;20143;-75
2021/05/14 06:51:10;;;;;;;7.88;4.82;;;;;;;;;;5076090;28;20046;-75
2021/05/14 06:53:35;;;;;;;10.10;5.22;;;;;;;;;;5074889;28;20020;-75
2021/05/14 06:56:01;;;;;;;7.65;4.80;;;;;;;;;;5061043;28;20028;-75
2021/05/14 06:58:26;;;;;;;6.20;4.60;;;;;;;;;;5080233;28;20020;-75
2021/05/14 07:00:51;;;;;;;8.23;4.80;;;;;;;;;;5075931;28;20049;-76
2021/05/14 07:03:17;;;;;;;5.93;4.75;;;;;;;;;;5059127;28;20035;-75
2021/05/14 07:05:42;;;;;;;5.78;4.68;;;;;;;;;;5074507;28;20028;-75
2021/05/14 07:08:08;;;;;;;6.75;4.28;;;;;;;;;;5074684;28;20012;-75
2021/05/14 07:10:34;;;;;;;5.57;4.38;;;;;;;;;;5074102;28;20111;-75
2021/05/14 07:12:59;;;;;;;7.00;4.20;;;;;;;;;;5073950;28;20020;-76
2021/05/14 07:15:24;;;;;;;7.38;4.30;;;;;;;;;;5073913;28;20457;-75
2021/05/14 07:17:51;;;;;;;6.07;4.00;;;;;;;;;;5073846;28;20115;-75
2021/05/14 07:20:17;;;;;;;5.88;3.83;;;;;;;;;;5074893;28;20035;-75
2021/05/14 07:22:42;;;;;;;8.35;4.30;;;;;;;;;;5073803;28;20025;-75
2021/05/14 07:25:08;;;;;;;8.20;4.50;;;;;;;;;;5073841;28;20021;-75
2021/05/14 07:27:33;;;;;;;6.07;4.15;;;;;;;;;;5078140;28;20036;-75
2021/05/14 07:30:00;;;;;;;8.02;3.58;;;;;;;;;;5080359;28;20112;-75
2021/05/14 07:32:26;;;;;;;5.60;4.10;;;;;;;;;;5057081;28;20048;-75
2021/05/14 07:34:55;;;;;;;6.20;4.10;;;;;;;;;;5074661;28;20020;-75
2021/05/14 07:37:21;;;;;;;6.22;3.90;;;;;;;;;;5074815;28;20047;-75
2021/05/14 07:39:46;;;;;;;5.82;4.25;;;;;;;;;;5074186;28;20438;-75
2021/05/14 07:42:11;;;;;;;6.70;3.70;;;;;;;;;;5073392;28;20044;-75
2021/05/14 07:44:37;;;;;;;8.48;4.05;;;;;;;;;;5073511;28;20020;-75
2021/05/14 07:47:02;;;;;;;6.07;4.03;;;;;;;;;;5073771;28;20021;-75
2021/05/14 07:49:28;;;;;;;6.55;4.28;;;;;;;;;;5073270;28;20036;-75
2021/05/14 07:51:53;;;;;;;5.30;3.95;;;;;;;;;;5056680;28;20028;-75
2021/05/14 07:54:18;;;;;;;8.13;3.97;;;;;;;;;;5073388;28;20115;-75
2021/05/14 07:56:43;;;;;;;5.47;3.90;;;;;;;;;;5074047;28;20021;-75
2021/05/14 07:59:11;;;;;;;6.65;3.85;;;;;;;;;;5074227;28;20070;-75
2021/05/14 08:01:36;;;;;;;5.28;3.60;;;;;;;;;;5074392;28;20171;-75
2021/05/14 08:04:02;;;;;;;8.75;4.15;;;;;;;;;;5074539;28;20446;-75
2021/05/14 08:06:27;;;;;;;5.55;4.00;;;;;;;;;;5078177;28;20016;-75
2021/05/14 08:08:54;;;;;;;4.55;3.85;;;;;;;;;;5077097;28;20016;-76
2021/05/14 08:11:20;;;;;;;9.23;4.15;;;;;;;;;;5077291;28;20028;-76
2021/05/14 08:13:45;;;;;;;6.97;4.25;;;;;;;;;;5077965;28;20362;-75
2021/05/14 08:16:11;;;;;;;6.03;4.25;;;;;;;;;;5077803;28;20024;-75
2021/05/14 08:18:36;;;;;;;8.45;4.22;;;;;;;;;;5076698;28;20028;-75
2021/05/14 08:21:01;;;;;;;8.02;3.97;;;;;;;;;;5077761;28;20032;-75
2021/05/14 08:23:27;;;;;;;8.60;4.00;;;;;;;;;;5076993;28;20507;-75
2021/05/14 08:25:52;;;;;;;4.25;3.65;;;;;;;;;;5077764;28;20027;-75
2021/05/14 08:28:18;;;;;;;6.30;3.92;;;;;;;;;;5076850;28;20028;-75
2021/05/14 08:30:44;;;;;;;7.00;4.18;;;;;;;;;;5077738;28;20103;-75
2021/05/14 08:33:11;;;;;;;6.07;4.28;;;;;;;;;;5076712;28;20078;-75
2021/05/14 08:35:37;;;;;;;8.35;4.47;;;;;;;;;;5078729;28;20478;-75
2021/05/14 08:38:04;;;;;;;8.18;4.25;;;;;;;;;;5079537;28;20021;-76
2021/05/14 08:40:30;;;;;;;7.68;4.18;;;;;;;;;;5076376;28;20074;-75
2021/05/14 08:42:55;;;;;;;7.15;4.22;;;;;;;;;;5076277;28;20024;-75
2021/05/14 08:45:22;;;;;;;10.00;4.35;;;;;;;;;;5077405;28;20020;-76
2021/05/14 08:47:48;;;;;;;5.95;4.30;;;;;;;;;;5077277;28;20095;-75
2021/05/14 08:50:15;;;;;;;8.07;4.47;;;;;;;;;;5077392;28;20075;-75
2021/05/14 08:52:42;;;;;;;6.28;4.15;;;;;;;;;;5076272;28;20089;-75
2021/05/14 08:55:14;;;;;;;9.10;4.13;;;;;;;;;;5077245;28;20450;-75
2021/05/14 08:57:39;;;;;;;5.68;4.40;;;;;;;;;;5077405;28;20032;-75
2021/05/14 09:00:05;;;;;;;6.38;4.03;;;;;;;;;;5077173;28;20117;-75
2021/05/14 09:02:34;;;;;;;12.20;4.13;;;;;;;;;;5059569;28;20490;-75
2021/05/14 09:05:19;;;;;;;4.28;3.70;;;;;;;;;;5077142;28;20058;-76
2021/05/14 09:07:44;;;;;;;;;;;;;;;;;;5076367;28;20012;-75
2021/05/14 09:10:10;;;;;;;6.50;3.97;;;;;;;;;;5075876;28;19921;-76
2021/05/14 09:12:40;;;;;;;9.10;4.03;;;;;;;;;;5059128;28;20029;-75
2021/05/14 09:15:27;;;;;;;6.20;4.15;;;;;;;;;;5075867;28;20028;-76
2021/05/14 09:18:12;;;;;;;5.75;4.38;;;;;;;;;;5076358;28;20024;-76
2021/05/14 09:20:37;;;;;;;5.82;4.00;;;;;;;;;;5076698;28;20020;-75
2021/05/14 09:23:15;;;;;;;5.85;4.07;;;;;;;;;;5076866;28;20025;-75
2021/05/14 09:25:54;;;;;;;7.35;4.10;;;;;;;;;;5076931;28;20020;-75
2021/05/14 09:28:26;;;;;;;5.95;4.50;;;;;;;;;;5076783;28;20009;-75
2021/05/14 09:31:18;;;;;;;6.75;4.53;;;;;;;;;;5058905;28;20111;-76
2021/05/14 09:33:48;;;;;;;6.57;4.50;;;;;;;;;;5074651;28;20063;-75
2021/05/14 09:36:16;;;;;;;6.35;4.05;;;;;;;;;;5076701;28;20017;-76
2021/05/14 09:38:43;;;;;;;5.57;4.63;;;;;;;;;;5076444;28;20403;-76
2021/05/14 09:41:35;;;;;;;5.25;4.75;;;;;;;;;;5075447;28;20028;-76
2021/05/14 09:44:09;;;;;;;8.48;4.50;;;;;;;;;;5074110;28;20036;-75
2021/05/14 09:46:37;;;;;;;7.50;4.82;;;;;;;;;;5075257;28;20020;-76
2021/05/14 09:49:04;;;;;;;7.43;5.00;;;;;;;;;;5074964;28;20484;-76
2021/05/14 09:51:29;;;;;;;7.95;5.15;;;;;;;;;;5076054;28;20102;-75
2021/05/14 09:53:55;;;;;;;7.60;4.82;;;;;;;;;;5075881;28;20078;-75
2021/05/14 09:56:33;;;;;;;8.73;4.70;;;;;;;;;;5075810;28;20031;-75
2021/05/14 09:59:00;;;;;;;5.00;4.60;;;;;;;;;;5074663;28;20024;-75
2021/05/14 10:01:26;;;;;;;5.30;4.80;;;;;;;;;;5076013;28;20039;-76
2021/05/14 10:03:51;;;;;;;8.10;4.45;;;;;;;;;;5075949;28;20016;-75
2021/05/14 10:06:17;;;;;;;6.82;5.18;;;;;;;;;;5076006;28;20017;-75
2021/05/14 10:08:49;;;;;;;9.38;5.13;;;;;;;;;;5075949;28;20105;-76
2021/05/14 10:11:21;;;;;;;8.38;5.00;;;;;;;;;;5076278;28;20342;-76
2021/05/14 10:13:48;;;;;;;6.05;4.82;;;;;;;;;;5076008;28;20021;-76
2021/05/14 10:16:14;;;;;;;5.03;4.10;;;;;;;;;;5076078;28;20032;-75
2021/05/14 10:18:42;;;;;;;7.72;4.80;;;;;;;;;;5074413;28;20077;-75
2021/05/14 10:21:09;;;;;;;8.20;5.13;;;;;;;;;;5075573;28;20042;-75
2021/05/14 10:23:34;;;;;;;7.70;4.80;;;;;;;;;;5075393;28;20090;-76
2021/05/14 10:26:07;;;;;;;7.57;4.18;;;;;;;;;;5074591;28;20442;-76
2021/05/14 10:28:37;;;;;;;6.72;3.97;;;;;;;;;;5075076;28;20465;-75
2021/05/14 10:31:06;;;;;;;6.00;4.13;;;;;;;;;;5075529;28;20027;-76
2021/05/14 10:33:51;;;;;;;7.18;3.90;;;;;;;;;;5075499;28;20016;-76
2021/05/14 10:36:16;;;;;;;10.90;5.65;;;;;;;;;;5075346;28;20055;-76
2021/05/14 10:38:42;;;;;;;10.03;4.67;;;;;;;;;;5074506;28;20059;-76
2021/05/14 10:41:23;;;;;;;6.53;5.00;;;;;;;;;;5074028;28;20328;-75
2021/05/14 10:43:58;;;;;;;4.80;4.40;;;;;;;;;;5057331;28;20020;-76
2021/05/14 10:46:30;;;;;;;5.72;5.13;;;;;;;;;;5074980;28;20052;-76
2021/05/14 10:48:59;;;;;;;9.18;4.55;;;;;;;;;;5075164;28;20403;-75
2021/05/14 10:51:40;;;;;;;6.43;4.90;;;;;;;;;;5073935;28;20016;-75
2021/05/14 10:54:06;;;;;;;10.65;4.70;;;;;;;;;;5074919;28;20516;-76
2021/05/14 10:56:32;;;;;;;10.43;4.80;;;;;;;;;;5073802;28;20032;-77
2021/05/14 10:59:16;;;;;;;9.40;5.00;;;;;;;;;;5074699;28;20361;-76
2021/05/14 11:01:44;;;;;;;6.87;5.07;;;;;;;;;;5074019;28;20021;-76
2021/05/14 11:04:12;;;;;;;8.88;5.32;;;;;;;;;;5073850;28;20109;-76
2021/05/14 11:06:50;;;;;;;5.38;4.88;;;;;;;;;;5073959;28;20039;-76
2021/05/14 11:09:16;;;;;;;6.90;5.65;;;;;;;;;;5073825;28;20016;-76
2021/05/14 11:11:55;;;;;;;6.15;5.03;;;;;;;;;;5074463;28;20343;-75
2021/05/14 11:14:20;;;;;;;7.03;5.75;;;;;;;;;;5055818;28;20032;-76
2021/05/14 11:16:46;;;;;;;10.88;5.50;;;;;;;;;;5089964;28;20413;-76
2021/05/14 11:19:30;;;;;;;10.95;6.70;;;;;;;;;;5072719;28;20044;-75
2021/05/14 11:22:04;;;;;;;11.37;7.07;;;;;;;;;;5072804;28;20013;-76
2021/05/14 11:24:35;;;;;;;8.75;7.55;;;;;;;;;;5055938;28;20020;-76
2021/05/14 11:27:23;;;;;;;7.97;7.00;;;;;;;;;;5056077;28;20028;-76
2021/05/14 11:29:54;;;;;;;7.78;6.97;;;;;;;;;;5067345;28;20032;-76
2021/05/14 11:32:20;;;;;;;8.02;7.07;;;;;;;;;;5073032;28;20020;-76
2021/05/14 11:34:56;;;;;;;9.05;7.70;;;;;;;;;;5089729;28;20056;-76
2021/05/14 11:37:22;;;;;;;11.82;8.95;;;;;;;;;;5056164;28;20024;-76
2021/05/14 11:39:47;;;;;;;9.63;8.35;;;;;;;;;;5057593;28;20043;-76
2021/05/14 11:42:16;;;;;;;11.65;9.05;;;;;;;;;;5077570;28;20024;-76
2021/05/14 11:45:01;;;;;;;9.63;8.65;;;;;;;;;;5095637;28;20461;-76
2021/05/14 11:47:28;;;;;;;10.43;9.23;;;;;;;;;;5079590;28;20020;-76
2021/05/14 11:49:54;;;;;;;10.35;8.40;;;;;;;;;;5083843;28;20449;-76
2021/05/14 11:52:32;;;;;;;11.68;8.43;;;;;;;;;;5083486;28;20028;-76
2021/05/14 11:55:11;;;;;;;11.32;9.18;;;;;;;;;;5085202;28;20071;-76
2021/05/14 11:57:37;;;;;;;9.30;8.50;;;;;;;;;;5084007;28;20023;-76
2021/05/14 12:00:05;;;;;;;11.00;8.35;;;;;;;;;;5083895;28;20044;-76
2021/05/14 12:02:34;;;;;;;11.85;7.75;;;;;;;;;;5080696;28;20103;-75
2021/05/14 12:05:00;;;;;;;9.27;7.13;;;;;;;;;;5077506;28;20032;-75
2021/05/14 12:07:25;;;;;;;8.88;6.70;;;;;;;;;;5077242;28;20342;-76
2021/05/14 12:09:57;;;;;;;7.72;7.03;;;;;;;;;;5076976;28;20103;-75
2021/05/14 12:12:22;;;;;;;9.05;8.13;;;;;;;;;;5077060;28;20032;-76
2021/05/14 12:14:47;;;;;;;8.70;7.68;;;;;;;;;;5078126;28;20028;-75
2021/05/14 12:17:13;;;;;;;10.13;8.25;;;;;;;;;;5077044;28;20020;-76
2021/05/14 12:19:47;;;;;;;11.77;8.38;;;;;;;;;;5077858;28;20039;-76
2021/05/14 12:22:13;;;;;;;10.63;8.27;;;;;;;;;;5076823;28;20044;-75
2021/05/14 12:24:39;;;;;;;9.15;8.18;;;;;;;;;;5077845;28;20035;-76
2021/05/14 12:27:06;;;;;;;9.40;8.40;;;;;;;;;;5076693;28;20021;-76
2021/05/14 12:29:31;;;;;;;9.98;7.93;;;;;;;;;;5076715;28;20365;-76
2021/05/14 12:31:59;;;;;;;10.57;8.10;;;;;;;;;;5077675;28;20021;-76
2021/05/14 12:34:30;;;;;;;9.45;8.00;;;;;;;;;;5077788;28;20089;-76
2021/05/14 12:36:57;;;;;;;10.32;7.85;;;;;;;;;;5076528;28;20035;-76
2021/05/14 12:39:27;;;;;;;13.65;8.25;;;;;;;;;;5077257;28;20023;-75
2021/05/14 12:42:02;;;;;;;11.52;9.60;;;;;;;;;;5076235;28;20016;-76
2021/05/14 12:44:39;;;;;;;14.85;10.38;;;;;;;;;;5075465;28;20067;-76
2021/05/14 12:47:14;;;;;;;12.80;11.40;;;;;;;;;;5077245;28;20032;-76
2021/05/14 12:49:50;;;;;;;12.00;10.75;;;;;;;;;;5077517;28;20099;-76
2021/05/14 12:52:21;;;;;;;13.13;10.73;;;;;;;;;;5077281;28;20043;-76
2021/05/14 12:54:57;;;;;;;13.90;10.95;;;;;;;;;;5077320;28;20442;-77
2021/05/14 12:57:29;;;;;;;16.52;11.10;;;;;;;;;;5077188;28;20472;-76
2021/05/14 12:59:55;;;;;;;15.85;10.80;;;;;;;;;;5076951;28;20462;-76
2021/05/14 13:02:21;;;;;;;10.55;8.82;;;;;;;;;;5093057;28;20032;-75
2021/05/14 13:04:54;;;;;;;11.85;10.63;;;;;;;;;;5076072;28;20166;-76
2021/05/14 13:07:19;;;;;;;11.80;10.48;;;;;;;;;;5109937;28;20017;-76
2021/05/14 13:09:49;;;;;;;12.93;10.13;;;;;;;;;;5076997;28;20036;-76
2021/05/14 13:12:14;;;;;;;12.02;9.30;;;;;;;;;;5110072;28;20171;-76
2021/05/14 13:14:41;;;;;;;9.65;7.65;;;;;;;;;;5077046;28;20024;-76
2021/05/14 13:17:07;;;;;;;10.05;8.35;;;;;;;;;;5076684;28;20024;-76
2021/05/14 13:19:32;;;;;;;10.63;7.60;;;;;;;;;;5076866;28;20105;-76
2021/05/14 13:21:57;;;;;;;8.73;7.28;;;;;;;;;;5059117;28;20027;-76
2021/05/14 13:24:22;;;;;;;8.25;7.32;;;;;;;;;;5075662;28;20044;-76
2021/05/14 13:26:48;;;;;;;11.10;7.93;;;;;;;;;;5058919;28;20416;-76
2021/05/14 13:29:13;;;;;;;12.00;7.93;;;;;;;;;;5076585;28;20099;-76
2021/05/14 13:31:38;;;;;;;8.13;6.90;;;;;;;;;;5075737;28;20024;-76
2021/05/14 13:34:04;;;;;;;9.45;7.65;;;;;;;;;;5075527;28;20021;-76
2021/05/14 13:36:29;;;;;;;7.82;6.80;;;;;;;;;;5075544;28;20057;-76
2021/05/14 13:38:54;;;;;;;10.70;7.70;;;;;;;;;;5076569;28;20081;-76
2021/05/14 13:41:20;;;;;;;9.82;7.80;;;;;;;;;;5058574;28;20033;-76
2021/05/14 13:43:45;;;;;;;10.27;7.97;;;;;;;;;;5075209;28;20354;-76
2021/05/14 13:46:11;;;;;;;9.95;7.90;;;;;;;;;;5075158;28;20020;-76
2021/05/14 13:48:36;;;;;;;9.88;7.68;;;;;;;;;;5058617;28;20450;-76
2021/05/14 13:51:01;;;;;;;8.57;7.15;;;;;;;;;;5075285;28;20027;-76
2021/05/14 13:53:27;;;;;;;10.27;7.68;;;;;;;;;;5075187;28;20396;-76
2021/05/14 13:55:55;;;;;;;11.43;7.50;;;;;;;;;;5076226;28;20109;-77
2021/05/14 13:58:21;;;;;;;10.10;7.38;;;;;;;;;;5076164;28;20020;-76
2021/05/14 14:00:47;;;;;;;9.23;7.72;;;;;;;;;;5074834;28;20474;-75
2021/05/14 14:03:12;;;;;;;11.32;8.13;;;;;;;;;;5075284;28;20017;-76
2021/05/14 14:05:42;;;;;;;9.52;7.75;;;;;;;;;;5075623;28;20048;-76
2021/05/14 14:08:07;;;;;;;11.65;7.68;;;;;;;;;;5074765;28;20055;-76
2021/05/14 14:10:33;;;;;;;10.95;7.70;;;;;;;;;;5075812;28;20016;-76
2021/05/14 14:13:00;;;;;;;11.90;7.43;;;;;;;;;;5075729;28;20032;-76
2021/05/14 14:15:25;;;;;;;10.90;7.07;;;;;;;;;;5074804;28;20054;-76
2021/05/14 14:17:52;;;;;;;10.77;7.43;;;;;;;;;;5075405;28;20059;-76
2021/05/14 14:20:17;;;;;;;14.65;7.35;;;;;;;;;;5074489;28;20553;-75
2021/05/14 14:22:43;;;;;;;14.75;8.35;;;;;;;;;;5076095;28;20074;-76
2021/05/14 14:25:09;;;;;;;11.07;7.18;;;;;;;;;;5074381;28;20024;-76
2021/05/14 14:27:35;;;;;;;12.55;7.25;;;;;;;;;;5074609;28;20039;-76
2021/05/14 14:30:01;;;;;;;11.13;6.90;;;;;;;;;;5074483;28;20028;-76
2021/05/14 14:32:27;;;;;;;10.98;6.60;;;;;;;;;;5075622;28;20032;-76
2021/05/14 14:34:52;;;;;;;8.98;6.53;;;;;;;;;;5075487;28;20322;-75
2021/05/14 14:37:17;;;;;;;28.40;16.60;;;;;;;;;;5074431;28;20050;-76